Impacts TAF Board
For situational awareness. Not to be used for flight planning purposes.
IDs:

KGBD - Great Bend Muni, KS, US

Issued at 1735 UTC 02 Oct 2022
Updated at 1926 UTC 02 Oct 2022
Potential Impact None Slight Moderate High
Time<<03/08Z 03/09Z 03/10Z 03/11Z 03/12Z 03/13Z 03/14Z 03/15Z 03/16Z 03/17Z 03/18Z 03/19Z 03/20Z>>
Type PRVL PRVL PRVL PRVL PRVL PRVL PRVL PRVL PRVL PRVL
VIS >6 >6 >6 >6 >6 >6 >6 >6 >6 >6
CIG -- -- -- -- -- -- -- -- -- --
Cover SKC SKC SKC SKC SKC SKC SKC SKC SKC SKC
FltCat VFR VFR VFR VFR VFR VFR VFR VFR VFR VFR
WX -- -- -- -- -- -- -- -- -- --
WDir 170 170 170 170 170 170 170 170 180 180
WSpd 12 12 12 12 12 12 12 12 15 15
WGst -- -- -- -- -- -- -- -- 22 22
WSHgt -- -- -- -- -- -- -- -- -- --
WSDir -- -- -- -- -- -- -- -- -- --
WSSpd -- -- -- -- -- -- -- -- -- --
Raw TAF
KGBD 021735Z 0218/0318 17012KT P6SM SKC
  FM031600 18015G22KT P6SM SKC


METAR Board
Radar Display
Forecast Discussion
For situational awareness. Not to be used for flight planning purposes.